sensor_id;sensor_type;location;lat;lon;timestamp;temperature;humidity
66119;DHT22;52912;48.564;9.302;2023-03-21T00:02:12;8.87;83.16
66119;DHT22;52912;48.564;9.302;2023-03-21T00:04:37;8.84;83.28
66119;DHT22;52912;48.564;9.302;2023-03-21T00:07:04;8.80;83.48
66119;DHT22;52912;48.564;9.302;2023-03-21T00:09:30;8.75;83.63
66119;DHT22;52912;48.564;9.302;2023-03-21T00:11:55;8.78;83.30
66119;DHT22;52912;48.564;9.302;2023-03-21T00:14:21;8.80;83.16
66119;DHT22;52912;48.564;9.302;2023-03-21T00:16:47;8.75;83.64
66119;DHT22;52912;48.564;9.302;2023-03-21T00:19:12;8.82;83.26
66119;DHT22;52912;48.564;9.302;2023-03-21T00:21:38;8.88;83.19
66119;DHT22;52912;48.564;9.302;2023-03-21T00:24:05;8.74;83.73
66119;DHT22;52912;48.564;9.302;2023-03-21T00:26:31;8.73;83.53
66119;DHT22;52912;48.564;9.302;2023-03-21T00:28:57;8.73;83.75
66119;DHT22;52912;48.564;9.302;2023-03-21T00:31:23;8.74;83.56
66119;DHT22;52912;48.564;9.302;2023-03-21T00:33:48;8.77;83.36
66119;DHT22;52912;48.564;9.302;2023-03-21T00:36:14;8.77;83.19
66119;DHT22;52912;48.564;9.302;2023-03-21T00:38:40;8.73;83.35
66119;DHT22;52912;48.564;9.302;2023-03-21T00:41:09;8.68;83.64
66119;DHT22;52912;48.564;9.302;2023-03-21T00:43:35;8.67;84.03
66119;DHT22;52912;48.564;9.302;2023-03-21T00:46:00;8.64;83.94
66119;DHT22;52912;48.564;9.302;2023-03-21T00:48:26;8.60;84.03
66119;DHT22;52912;48.564;9.302;2023-03-21T00:50:53;8.74;83.82
66119;DHT22;52912;48.564;9.302;2023-03-21T00:53:19;8.70;83.73
66119;DHT22;52912;48.564;9.302;2023-03-21T00:55:45;8.73;83.92
66119;DHT22;52912;48.564;9.302;2023-03-21T00:58:12;8.73;83.79
66119;DHT22;52912;48.564;9.302;2023-03-21T01:00:38;8.77;83.88
66119;DHT22;52912;48.564;9.302;2023-03-21T01:03:04;8.64;84.44
66119;DHT22;52912;48.564;9.302;2023-03-21T01:05:32;8.61;84.44
66119;DHT22;52912;48.564;9.302;2023-03-21T01:07:58;8.63;84.56
66119;DHT22;52912;48.564;9.302;2023-03-21T01:10:23;8.60;84.12
66119;DHT22;52912;48.564;9.302;2023-03-21T01:12:48;8.52;83.72
66119;DHT22;52912;48.564;9.302;2023-03-21T01:15:15;8.49;84.19
66119;DHT22;52912;48.564;9.302;2023-03-21T01:17:41;8.40;84.38
66119;DHT22;52912;48.564;9.302;2023-03-21T01:20:08;8.37;84.75
66119;DHT22;52912;48.564;9.302;2023-03-21T01:22:35;8.40;84.63
66119;DHT22;52912;48.564;9.302;2023-03-21T01:25:01;8.47;84.44
66119;DHT22;52912;48.564;9.302;2023-03-21T01:27:26;8.47;84.20
66119;DHT22;52912;48.564;9.302;2023-03-21T01:29:52;8.45;84.31
66119;DHT22;52912;48.564;9.302;2023-03-21T01:32:18;8.50;84.03
66119;DHT22;52912;48.564;9.302;2023-03-21T01:34:44;8.50;84.01
66119;DHT22;52912;48.564;9.302;2023-03-21T01:37:09;8.46;84.42
66119;DHT22;52912;48.564;9.302;2023-03-21T01:39:35;8.46;84.42
66119;DHT22;52912;48.564;9.302;2023-03-21T01:42:00;8.50;84.33
66119;DHT22;52912;48.564;9.302;2023-03-21T01:44:27;8.52;84.41
66119;DHT22;52912;48.564;9.302;2023-03-21T01:46:52;8.59;84.30
66119;DHT22;52912;48.564;9.302;2023-03-21T01:49:21;8.42;85.27
66119;DHT22;52912;48.564;9.302;2023-03-21T01:51:51;8.37;84.85
66119;DHT22;52912;48.564;9.302;2023-03-21T01:54:21;8.46;84.79
66119;DHT22;52912;48.564;9.302;2023-03-21T01:56:47;8.45;84.62
66119;DHT22;52912;48.564;9.302;2023-03-21T01:59:16;8.39;85.15
66119;DHT22;52912;48.564;9.302;2023-03-21T02:01:43;8.37;85.00
66119;DHT22;52912;48.564;9.302;2023-03-21T02:04:10;8.42;84.92
66119;DHT22;52912;48.564;9.302;2023-03-21T02:06:42;8.37;85.12
66119;DHT22;52912;48.564;9.302;2023-03-21T02:09:12;8.39;85.02
66119;DHT22;52912;48.564;9.302;2023-03-21T02:11:38;8.37;84.95
66119;DHT22;52912;48.564;9.302;2023-03-21T02:14:04;8.37;85.11
66119;DHT22;52912;48.564;9.302;2023-03-21T02:16:41;8.35;84.95
66119;DHT22;52912;48.564;9.302;2023-03-21T02:19:17;8.35;85.00
66119;DHT22;52912;48.564;9.302;2023-03-21T02:22:00;8.39;84.84
66119;DHT22;52912;48.564;9.302;2023-03-21T02:27:26;8.35;84.97
66119;DHT22;52912;48.564;9.302;2023-03-21T02:30:27;8.40;84.78
66119;DHT22;52912;48.564;9.302;2023-03-21T02:35:57;8.39;84.95
66119;DHT22;52912;48.564;9.302;2023-03-21T02:38:31;8.40;84.94
66119;DHT22;52912;48.564;9.302;2023-03-21T02:41:04;8.37;85.26
66119;DHT22;52912;48.564;9.302;2023-03-21T02:43:38;8.36;85.16
66119;DHT22;52912;48.564;9.302;2023-03-21T02:46:07;8.35;85.25
66119;DHT22;52912;48.564;9.302;2023-03-21T02:48:36;8.30;85.39
66119;DHT22;52912;48.564;9.302;2023-03-21T02:51:03;8.32;85.33
66119;DHT22;52912;48.564;9.302;2023-03-21T02:53:33;8.35;85.26
66119;DHT22;52912;48.564;9.302;2023-03-21T02:56:02;8.32;85.76
66119;DHT22;52912;48.564;9.302;2023-03-21T02:58:29;8.26;85.46
66119;DHT22;52912;48.564;9.302;2023-03-21T03:00:56;8.30;85.39
66119;DHT22;52912;48.564;9.302;2023-03-21T03:03:22;8.28;85.52
66119;DHT22;52912;48.564;9.302;2023-03-21T03:05:49;8.25;85.57
66119;DHT22;52912;48.564;9.302;2023-03-21T03:08:34;8.16;85.68
66119;DHT22;52912;48.564;9.302;2023-03-21T03:11:14;8.16;85.62
66119;DHT22;52912;48.564;9.302;2023-03-21T03:13:52;8.13;85.95
66119;DHT22;52912;48.564;9.302;2023-03-21T03:16:23;8.12;85.92
66119;DHT22;52912;48.564;9.302;2023-03-21T03:18:53;8.13;85.58
66119;DHT22;52912;48.564;9.302;2023-03-21T03:21:25;8.12;85.46
66119;DHT22;52912;48.564;9.302;2023-03-21T03:23:56;8.15;85.53
66119;DHT22;52912;48.564;9.302;2023-03-21T03:26:27;8.15;85.89
66119;DHT22;52912;48.564;9.302;2023-03-21T03:28:57;8.18;85.68
66119;DHT22;52912;48.564;9.302;2023-03-21T03:31:26;8.11;86.14
66119;DHT22;52912;48.564;9.302;2023-03-21T03:33:55;8.11;86.19
66119;DHT22;52912;48.564;9.302;2023-03-21T03:36:26;8.11;86.10
66119;DHT22;52912;48.564;9.302;2023-03-21T03:38:56;8.15;86.03
66119;DHT22;52912;48.564;9.302;2023-03-21T03:41:25;8.11;85.91
66119;DHT22;52912;48.564;9.302;2023-03-21T03:43:54;8.09;85.83
66119;DHT22;52912;48.564;9.302;2023-03-21T03:46:25;8.11;85.85
66119;DHT22;52912;48.564;9.302;2023-03-21T03:48:54;8.09;86.14
66119;DHT22;52912;48.564;9.302;2023-03-21T03:51:23;8.15;86.28
66119;DHT22;52912;48.564;9.302;2023-03-21T03:53:52;8.09;86.31
66119;DHT22;52912;48.564;9.302;2023-03-21T03:56:21;8.01;86.53
66119;DHT22;52912;48.564;9.302;2023-03-21T03:58:47;7.97;86.44
66119;DHT22;52912;48.564;9.302;2023-03-21T04:01:13;7.90;86.58
66119;DHT22;52912;48.564;9.302;2023-03-21T04:03:40;7.87;86.80
66119;DHT22;52912;48.564;9.302;2023-03-21T04:06:07;7.91;86.53
66119;DHT22;52912;48.564;9.302;2023-03-21T04:08:33;7.91;86.63
66119;DHT22;52912;48.564;9.302;2023-03-21T04:11:00;8.03;86.15
66119;DHT22;52912;48.564;9.302;2023-03-21T04:13:27;8.05;86.04
66119;DHT22;52912;48.564;9.302;2023-03-21T04:15:52;8.02;86.05
66119;DHT22;52912;48.564;9.302;2023-03-21T04:18:18;7.99;86.09
66119;DHT22;52912;48.564;9.302;2023-03-21T04:20:43;7.98;86.11
66119;DHT22;52912;48.564;9.302;2023-03-21T04:23:09;7.94;86.25
66119;DHT22;52912;48.564;9.302;2023-03-21T04:25:35;7.84;86.41
66119;DHT22;52912;48.564;9.302;2023-03-21T04:28:01;7.87;86.90
66119;DHT22;52912;48.564;9.302;2023-03-21T04:30:28;7.85;86.57
66119;DHT22;52912;48.564;9.302;2023-03-21T04:32:53;7.88;86.27
66119;DHT22;52912;48.564;9.302;2023-03-21T04:35:19;7.87;86.41
66119;DHT22;52912;48.564;9.302;2023-03-21T04:37:44;7.90;86.44
66119;DHT22;52912;48.564;9.302;2023-03-21T04:40:11;7.85;86.38
66119;DHT22;52912;48.564;9.302;2023-03-21T04:42:36;7.91;86.24
66119;DHT22;52912;48.564;9.302;2023-03-21T04:45:02;7.90;86.38
66119;DHT22;52912;48.564;9.302;2023-03-21T04:47:29;7.87;86.45
66119;DHT22;52912;48.564;9.302;2023-03-21T04:49:55;7.88;86.37
66119;DHT22;52912;48.564;9.302;2023-03-21T04:52:20;7.88;86.40
66119;DHT22;52912;48.564;9.302;2023-03-21T04:54:46;7.78;86.92
66119;DHT22;52912;48.564;9.302;2023-03-21T04:57:12;7.71;86.78
66119;DHT22;52912;48.564;9.302;2023-03-21T04:59:37;7.69;86.70
66119;DHT22;52912;48.564;9.302;2023-03-21T05:02:03;7.67;86.65
66119;DHT22;52912;48.564;9.302;2023-03-21T05:04:30;7.66;86.63
66119;DHT22;52912;48.564;9.302;2023-03-21T05:06:55;7.64;86.57
66119;DHT22;52912;48.564;9.302;2023-03-21T05:09:21;7.69;86.61
66119;DHT22;52912;48.564;9.302;2023-03-21T05:11:47;7.71;86.26
66119;DHT22;52912;48.564;9.302;2023-03-21T05:14:15;7.73;86.18
66119;DHT22;52912;48.564;9.302;2023-03-21T05:16:42;7.73;86.30
66119;DHT22;52912;48.564;9.302;2023-03-21T05:19:08;7.67;86.62
66119;DHT22;52912;48.564;9.302;2023-03-21T05:21:35;7.60;87.01
66119;DHT22;52912;48.564;9.302;2023-03-21T05:24:01;7.56;86.99
66119;DHT22;52912;48.564;9.302;2023-03-21T05:26:26;7.53;87.09
66119;DHT22;52912;48.564;9.302;2023-03-21T05:28:52;7.55;86.89
66119;DHT22;52912;48.564;9.302;2023-03-21T05:31:17;7.50;87.49
66119;DHT22;52912;48.564;9.302;2023-03-21T05:33:43;7.47;87.26
66119;DHT22;52912;48.564;9.302;2023-03-21T05:36:09;7.49;87.39
66119;DHT22;52912;48.564;9.302;2023-03-21T05:38:37;7.52;87.35
66119;DHT22;52912;48.564;9.302;2023-03-21T05:41:02;7.53;87.16
66119;DHT22;52912;48.564;9.302;2023-03-21T05:43:28;7.57;87.27
66119;DHT22;52912;48.564;9.302;2023-03-21T05:45:53;7.62;87.00
66119;DHT22;52912;48.564;9.302;2023-03-21T05:48:19;7.69;87.19
66119;DHT22;52912;48.564;9.302;2023-03-21T05:50:44;7.71;86.95
66119;DHT22;52912;48.564;9.302;2023-03-21T05:53:10;7.73;87.00
66119;DHT22;52912;48.564;9.302;2023-03-21T05:55:38;7.64;86.79
66119;DHT22;52912;48.564;9.302;2023-03-21T05:58:03;7.63;86.97
66119;DHT22;52912;48.564;9.302;2023-03-21T06:00:29;7.60;87.05
66119;DHT22;52912;48.564;9.302;2023-03-21T06:02:54;7.62;86.81
66119;DHT22;52912;48.564;9.302;2023-03-21T06:05:20;7.56;86.78
66119;DHT22;52912;48.564;9.302;2023-03-21T06:07:45;7.53;87.01
66119;DHT22;52912;48.564;9.302;2023-03-21T06:10:11;7.59;87.11
66119;DHT22;52912;48.564;9.302;2023-03-21T06:12:38;7.50;87.26
66119;DHT22;52912;48.564;9.302;2023-03-21T06:15:04;7.57;87.13
66119;DHT22;52912;48.564;9.302;2023-03-21T06:17:30;7.57;87.09
66119;DHT22;52912;48.564;9.302;2023-03-21T06:19:56;7.56;87.10
66119;DHT22;52912;48.564;9.302;2023-03-21T06:22:21;7.55;87.32
66119;DHT22;52912;48.564;9.302;2023-03-21T06:24:47;7.57;87.19
66119;DHT22;52912;48.564;9.302;2023-03-21T06:27:13;7.59;87.00
66119;DHT22;52912;48.564;9.302;2023-03-21T06:29:39;7.70;86.72
66119;DHT22;52912;48.564;9.302;2023-03-21T06:32:05;7.84;86.37
66119;DHT22;52912;48.564;9.302;2023-03-21T06:34:31;7.97;85.97
66119;DHT22;52912;48.564;9.302;2023-03-21T06:36:56;8.01;85.83
66119;DHT22;52912;48.564;9.302;2023-03-21T06:39:21;7.98;85.91
66119;DHT22;52912;48.564;9.302;2023-03-21T06:41:47;7.92;86.08
66119;DHT22;52912;48.564;9.302;2023-03-21T06:44:12;7.87;86.40
66119;DHT22;52912;48.564;9.302;2023-03-21T06:46:39;7.84;86.45
66119;DHT22;52912;48.564;9.302;2023-03-21T06:49:05;7.91;86.19
66119;DHT22;52912;48.564;9.302;2023-03-21T06:51:30;8.01;85.65
66119;DHT22;52912;48.564;9.302;2023-03-21T06:53:55;8.21;85.58
66119;DHT22;52912;48.564;9.302;2023-03-21T06:56:21;8.39;85.00
66119;DHT22;52912;48.564;9.302;2023-03-21T06:58:46;8.50;84.45
66119;DHT22;52912;48.564;9.302;2023-03-21T07:01:12;8.68;83.95
66119;DHT22;52912;48.564;9.302;2023-03-21T07:03:39;8.82;83.67
66119;DHT22;52912;48.564;9.302;2023-03-21T07:06:06;8.97;83.35
66119;DHT22;52912;48.564;9.302;2023-03-21T07:08:33;9.04;83.13
66119;DHT22;52912;48.564;9.302;2023-03-21T07:10:59;9.20;82.55
66119;DHT22;52912;48.564;9.302;2023-03-21T07:13:24;9.37;82.01
66119;DHT22;52912;48.564;9.302;2023-03-21T07:15:51;9.39;82.20
66119;DHT22;52912;48.564;9.302;2023-03-21T07:18:16;9.42;81.61
66119;DHT22;52912;48.564;9.302;2023-03-21T07:20:45;9.67;81.14
66119;DHT22;52912;48.564;9.302;2023-03-21T07:23:11;9.75;80.91
66119;DHT22;52912;48.564;9.302;2023-03-21T07:25:36;9.85;80.67
66119;DHT22;52912;48.564;9.302;2023-03-21T07:28:02;9.97;80.28
66119;DHT22;52912;48.564;9.302;2023-03-21T07:30:27;9.98;80.48
66119;DHT22;52912;48.564;9.302;2023-03-21T07:32:53;10.10;79.79
66119;DHT22;52912;48.564;9.302;2023-03-21T07:35:18;10.22;79.48
66119;DHT22;52912;48.564;9.302;2023-03-21T07:37:45;10.26;79.58
66119;DHT22;52912;48.564;9.302;2023-03-21T07:40:11;10.29;79.30
66119;DHT22;52912;48.564;9.302;2023-03-21T07:42:36;10.37;79.21
66119;DHT22;52912;48.564;9.302;2023-03-21T07:45:02;10.53;78.66
66119;DHT22;52912;48.564;9.302;2023-03-21T07:47:28;10.68;78.39
66119;DHT22;52912;48.564;9.302;2023-03-21T07:49:53;10.77;77.94
66119;DHT22;52912;48.564;9.302;2023-03-21T07:52:19;11.01;77.35
66119;DHT22;52912;48.564;9.302;2023-03-21T07:54:45;11.08;77.11
66119;DHT22;52912;48.564;9.302;2023-03-21T07:57:11;11.39;76.30
66119;DHT22;52912;48.564;9.302;2023-03-21T07:59:36;11.39;75.95
66119;DHT22;52912;48.564;9.302;2023-03-21T08:02:02;11.64;75.70
66119;DHT22;52912;48.564;9.302;2023-03-21T08:04:27;11.82;75.26
66119;DHT22;52912;48.564;9.302;2023-03-21T08:06:53;11.87;76.95
66119;DHT22;52912;48.564;9.302;2023-03-21T08:09:18;12.05;76.81
66119;DHT22;52912;48.564;9.302;2023-03-21T08:11:45;12.19;75.63
66119;DHT22;52912;48.564;9.302;2023-03-21T08:14:11;12.02;75.10
66119;DHT22;52912;48.564;9.302;2023-03-21T08:16:36;12.22;75.60
66119;DHT22;52912;48.564;9.302;2023-03-21T08:19:02;12.40;75.43
66119;DHT22;52912;48.564;9.302;2023-03-21T08:21:27;12.58;75.06
66119;DHT22;52912;48.564;9.302;2023-03-21T08:23:53;12.73;74.29
66119;DHT22;52912;48.564;9.302;2023-03-21T08:26:18;12.61;74.47
66119;DHT22;52912;48.564;9.302;2023-03-21T08:28:45;12.74;73.90
66119;DHT22;52912;48.564;9.302;2023-03-21T08:31:14;13.12;72.90
66119;DHT22;52912;48.564;9.302;2023-03-21T08:33:39;13.40;71.99
66119;DHT22;52912;48.564;9.302;2023-03-21T08:36:05;13.26;72.17
66119;DHT22;52912;48.564;9.302;2023-03-21T08:38:31;13.18;73.43
66119;DHT22;52912;48.564;9.302;2023-03-21T08:40:57;13.23;71.94
66119;DHT22;52912;48.564;9.302;2023-03-21T08:43:22;13.43;71.68
66119;DHT22;52912;48.564;9.302;2023-03-21T08:45:49;13.47;71.13
66119;DHT22;52912;48.564;9.302;2023-03-21T08:48:15;13.57;70.11
66119;DHT22;52912;48.564;9.302;2023-03-21T08:50:40;14.30;69.59
66119;DHT22;52912;48.564;9.302;2023-03-21T08:53:06;14.12;69.18
66119;DHT22;52912;48.564;9.302;2023-03-21T08:55:31;13.84;68.80
66119;DHT22;52912;48.564;9.302;2023-03-21T08:57:56;13.75;69.43
66119;DHT22;52912;48.564;9.302;2023-03-21T09:00:22;14.05;69.87
66119;DHT22;52912;48.564;9.302;2023-03-21T09:02:49;14.32;68.50
66119;DHT22;52912;48.564;9.302;2023-03-21T09:05:15;14.47;66.66
66119;DHT22;52912;48.564;9.302;2023-03-21T09:07:40;14.29;66.63
66119;DHT22;52912;48.564;9.302;2023-03-21T09:10:10;14.92;66.47
66119;DHT22;52912;48.564;9.302;2023-03-21T09:12:36;15.09;65.41
66119;DHT22;52912;48.564;9.302;2023-03-21T09:15:03;15.19;65.70
66119;DHT22;52912;48.564;9.302;2023-03-21T09:17:29;15.32;64.79
66119;DHT22;52912;48.564;9.302;2023-03-21T09:19:55;15.61;65.23
66119;DHT22;52912;48.564;9.302;2023-03-21T09:22:21;15.87;64.56
66119;DHT22;52912;48.564;9.302;2023-03-21T09:24:46;15.94;63.78
66119;DHT22;52912;48.564;9.302;2023-03-21T09:27:12;16.26;62.60
66119;DHT22;52912;48.564;9.302;2023-03-21T09:29:37;15.98;62.23
66119;DHT22;52912;48.564;9.302;2023-03-21T09:32:04;16.22;62.61
66119;DHT22;52912;48.564;9.302;2023-03-21T09:34:29;16.26;63.47
66119;DHT22;52912;48.564;9.302;2023-03-21T09:36:56;15.78;62.84
66119;DHT22;52912;48.564;9.302;2023-03-21T09:39:22;15.22;64.91
66119;DHT22;52912;48.564;9.302;2023-03-21T09:42:02;15.30;64.78
66119;DHT22;52912;48.564;9.302;2023-03-21T09:44:40;15.60;63.55
66119;DHT22;52912;48.564;9.302;2023-03-21T09:47:14;15.20;63.49
66119;DHT22;52912;48.564;9.302;2023-03-21T09:49:43;15.75;63.50
66119;DHT22;52912;48.564;9.302;2023-03-21T09:52:15;15.55;63.19
66119;DHT22;52912;48.564;9.302;2023-03-21T09:54:42;15.81;62.60
66119;DHT22;52912;48.564;9.302;2023-03-21T09:57:15;16.09;62.03
66119;DHT22;52912;48.564;9.302;2023-03-21T09:59:42;16.49;60.92
66119;DHT22;52912;48.564;9.302;2023-03-21T10:02:20;16.53;60.09
66119;DHT22;52912;48.564;9.302;2023-03-21T10:04:50;16.85;59.32
66119;DHT22;52912;48.564;9.302;2023-03-21T10:07:17;16.85;59.12
66119;DHT22;52912;48.564;9.302;2023-03-21T10:09:42;17.05;58.07
66119;DHT22;52912;48.564;9.302;2023-03-21T10:12:13;16.89;58.13
66119;DHT22;52912;48.564;9.302;2023-03-21T10:14:43;17.08;57.85
66119;DHT22;52912;48.564;9.302;2023-03-21T10:17:21;17.37;56.39
66119;DHT22;52912;48.564;9.302;2023-03-21T10:19:55;17.05;58.91
66119;DHT22;52912;48.564;9.302;2023-03-21T10:22:23;17.30;58.11
66119;DHT22;52912;48.564;9.302;2023-03-21T10:24:49;17.40;56.84
66119;DHT22;52912;48.564;9.302;2023-03-21T10:27:14;17.50;56.31
66119;DHT22;52912;48.564;9.302;2023-03-21T10:29:42;17.26;57.44
66119;DHT22;52912;48.564;9.302;2023-03-21T10:32:08;17.30;57.65
66119;DHT22;52912;48.564;9.302;2023-03-21T10:34:37;17.06;57.82
66119;DHT22;52912;48.564;9.302;2023-03-21T10:37:04;16.98;58.60
66119;DHT22;52912;48.564;9.302;2023-03-21T10:39:33;17.24;57.91
66119;DHT22;52912;48.564;9.302;2023-03-21T10:41:59;17.20;58.22
66119;DHT22;52912;48.564;9.302;2023-03-21T10:44:28;17.03;57.92
66119;DHT22;52912;48.564;9.302;2023-03-21T10:46:55;16.92;58.91
66119;DHT22;52912;48.564;9.302;2023-03-21T10:49:21;16.95;57.98
66119;DHT22;52912;48.564;9.302;2023-03-21T10:51:48;17.08;58.46
66119;DHT22;52912;48.564;9.302;2023-03-21T10:54:18;17.31;57.55
66119;DHT22;52912;48.564;9.302;2023-03-21T10:56:53;17.47;58.64
66119;DHT22;52912;48.564;9.302;2023-03-21T10:59:20;17.57;58.10
66119;DHT22;52912;48.564;9.302;2023-03-21T11:01:48;17.78;58.35
66119;DHT22;52912;48.564;9.302;2023-03-21T11:04:16;17.30;56.88
66119;DHT22;52912;48.564;9.302;2023-03-21T11:06:43;17.26;57.67
66119;DHT22;52912;48.564;9.302;2023-03-21T11:09:14;17.41;58.01
66119;DHT22;52912;48.564;9.302;2023-03-21T11:11:48;17.48;58.90
66119;DHT22;52912;48.564;9.302;2023-03-21T11:14:25;17.46;58.11
66119;DHT22;52912;48.564;9.302;2023-03-21T11:16:51;17.54;57.25
66119;DHT22;52912;48.564;9.302;2023-03-21T11:19:19;17.79;57.96
66119;DHT22;52912;48.564;9.302;2023-03-21T11:21:46;17.53;58.40
66119;DHT22;52912;48.564;9.302;2023-03-21T11:24:14;17.44;57.99
66119;DHT22;52912;48.564;9.302;2023-03-21T11:26:41;17.15;57.72
66119;DHT22;52912;48.564;9.302;2023-03-21T11:29:15;17.37;58.99
66119;DHT22;52912;48.564;9.302;2023-03-21T11:31:44;17.47;58.13
66119;DHT22;52912;48.564;9.302;2023-03-21T11:34:24;17.67;57.10
66119;DHT22;52912;48.564;9.302;2023-03-21T11:36:50;17.50;57.26
66119;DHT22;52912;48.564;9.302;2023-03-21T11:39:29;17.74;57.54
66119;DHT22;52912;48.564;9.302;2023-03-21T11:41:54;17.29;58.05
66119;DHT22;52912;48.564;9.302;2023-03-21T11:44:26;17.24;57.76
66119;DHT22;52912;48.564;9.302;2023-03-21T11:46:53;16.89;59.10
66119;DHT22;52912;48.564;9.302;2023-03-21T11:49:19;16.96;59.62
66119;DHT22;52912;48.564;9.302;2023-03-21T11:51:50;16.92;60.81
66119;DHT22;52912;48.564;9.302;2023-03-21T11:54:20;16.92;59.83
66119;DHT22;52912;48.564;9.302;2023-03-21T11:56:51;16.71;59.50
66119;DHT22;52912;48.564;9.302;2023-03-21T11:59:33;16.68;59.58
66119;DHT22;52912;48.564;9.302;2023-03-21T12:02:10;16.72;60.24
66119;DHT22;52912;48.564;9.302;2023-03-21T12:04:40;16.58;59.84
66119;DHT22;52912;48.564;9.302;2023-03-21T12:07:15;16.68;59.11
66119;DHT22;52912;48.564;9.302;2023-03-21T12:09:48;16.68;60.55
66119;DHT22;52912;48.564;9.302;2023-03-21T12:12:30;16.81;59.79
66119;DHT22;52912;48.564;9.302;2023-03-21T12:15:02;16.82;59.87
66119;DHT22;52912;48.564;9.302;2023-03-21T12:17:41;16.96;58.42
66119;DHT22;52912;48.564;9.302;2023-03-21T12:20:23;16.95;58.49
66119;DHT22;52912;48.564;9.302;2023-03-21T12:22:59;17.12;59.06
66119;DHT22;52912;48.564;9.302;2023-03-21T12:25:32;17.23;58.08
66119;DHT22;52912;48.564;9.302;2023-03-21T12:28:10;17.33;58.39
66119;DHT22;52912;48.564;9.302;2023-03-21T12:30:47;17.46;59.32
66119;DHT22;52912;48.564;9.302;2023-03-21T12:33:25;17.05;58.77
66119;DHT22;52912;48.564;9.302;2023-03-21T12:36:08;16.96;59.50
66119;DHT22;52912;48.564;9.302;2023-03-21T12:38:42;17.37;59.14
66119;DHT22;52912;48.564;9.302;2023-03-21T12:41:19;17.19;58.75
66119;DHT22;52912;48.564;9.302;2023-03-21T12:43:49;17.36;61.23
66119;DHT22;52912;48.564;9.302;2023-03-21T12:46:19;17.11;59.09
66119;DHT22;52912;48.564;9.302;2023-03-21T12:48:50;17.05;60.31
66119;DHT22;52912;48.564;9.302;2023-03-21T12:51:18;16.99;60.06
66119;DHT22;52912;48.564;9.302;2023-03-21T12:53:59;17.08;59.74
66119;DHT22;52912;48.564;9.302;2023-03-21T12:56:30;16.84;60.83
66119;DHT22;52912;48.564;9.302;2023-03-21T12:58:59;16.82;61.36
66119;DHT22;52912;48.564;9.302;2023-03-21T13:01:27;16.69;61.25
66119;DHT22;52912;48.564;9.302;2023-03-21T13:04:05;16.71;60.14
66119;DHT22;52912;48.564;9.302;2023-03-21T13:06:32;16.86;61.03
66119;DHT22;52912;48.564;9.302;2023-03-21T13:09:01;16.56;62.47
66119;DHT22;52912;48.564;9.302;2023-03-21T13:11:31;16.78;61.68
66119;DHT22;52912;48.564;9.302;2023-03-21T13:14:01;16.57;61.91
66119;DHT22;52912;48.564;9.302;2023-03-21T13:16:31;16.65;61.70
66119;DHT22;52912;48.564;9.302;2023-03-21T13:19:03;16.89;61.25
66119;DHT22;52912;48.564;9.302;2023-03-21T13:21:40;17.08;60.23
66119;DHT22;52912;48.564;9.302;2023-03-21T13:24:18;17.47;59.36
66119;DHT22;52912;48.564;9.302;2023-03-21T13:26:45;17.74;58.88
66119;DHT22;52912;48.564;9.302;2023-03-21T13:29:14;17.99;58.10
66119;DHT22;52912;48.564;9.302;2023-03-21T13:31:48;18.12;57.47
66119;DHT22;52912;48.564;9.302;2023-03-21T13:34:16;18.28;57.88
66119;DHT22;52912;48.564;9.302;2023-03-21T13:36:44;18.81;57.19
66119;DHT22;52912;48.564;9.302;2023-03-21T13:39:17;18.95;56.93
66119;DHT22;52912;48.564;9.302;2023-03-21T13:41:44;18.72;56.10
66119;DHT22;52912;48.564;9.302;2023-03-21T13:44:21;18.72;57.09
66119;DHT22;52912;48.564;9.302;2023-03-21T13:46:53;18.43;57.06
66119;DHT22;52912;48.564;9.302;2023-03-21T13:49:27;18.28;57.84
66119;DHT22;52912;48.564;9.302;2023-03-21T13:51:54;18.19;58.08
66119;DHT22;52912;48.564;9.302;2023-03-21T13:54:22;18.30;58.14
66119;DHT22;52912;48.564;9.302;2023-03-21T13:56:49;18.28;58.28
66119;DHT22;52912;48.564;9.302;2023-03-21T13:59:17;18.16;57.94
66119;DHT22;52912;48.564;9.302;2023-03-21T14:01:57;18.20;57.34
66119;DHT22;52912;48.564;9.302;2023-03-21T14:04:28;17.85;58.01
66119;DHT22;52912;48.564;9.302;2023-03-21T14:06:56;17.77;58.93
66119;DHT22;52912;48.564;9.302;2023-03-21T14:09:29;17.64;59.96
66119;DHT22;52912;48.564;9.302;2023-03-21T14:11:56;17.51;60.76
66119;DHT22;52912;48.564;9.302;2023-03-21T14:14:23;17.36;59.93
66119;DHT22;52912;48.564;9.302;2023-03-21T14:16:52;17.12;60.72
66119;DHT22;52912;48.564;9.302;2023-03-21T14:19:17;17.05;60.43
66119;DHT22;52912;48.564;9.302;2023-03-21T14:21:50;17.11;61.02
66119;DHT22;52912;48.564;9.302;2023-03-21T14:24:17;17.41;60.05
66119;DHT22;52912;48.564;9.302;2023-03-21T14:26:45;17.36;59.86
66119;DHT22;52912;48.564;9.302;2023-03-21T14:29:18;17.57;58.65
66119;DHT22;52912;48.564;9.302;2023-03-21T14:31:44;17.54;58.88
66119;DHT22;52912;48.564;9.302;2023-03-21T14:34:12;17.67;56.57
66119;DHT22;52912;48.564;9.302;2023-03-21T14:36:38;17.75;56.53
66119;DHT22;52912;48.564;9.302;2023-03-21T14:39:12;17.58;55.47
66119;DHT22;52912;48.564;9.302;2023-03-21T14:41:44;17.50;56.24
66119;DHT22;52912;48.564;9.302;2023-03-21T14:44:19;17.55;55.75
66119;DHT22;52912;48.564;9.302;2023-03-21T14:46:44;17.53;55.14
66119;DHT22;52912;48.564;9.302;2023-03-21T14:49:18;17.66;55.34
66119;DHT22;52912;48.564;9.302;2023-03-21T14:51:44;17.47;55.49
66119;DHT22;52912;48.564;9.302;2023-03-21T14:54:13;17.57;54.64
66119;DHT22;52912;48.564;9.302;2023-03-21T14:56:39;17.61;53.86
66119;DHT22;52912;48.564;9.302;2023-03-21T14:59:04;17.60;53.87
66119;DHT22;52912;48.564;9.302;2023-03-21T15:01:31;17.53;55.13
66119;DHT22;52912;48.564;9.302;2023-03-21T15:03:58;17.50;54.53
66119;DHT22;52912;48.564;9.302;2023-03-21T15:06:24;17.47;54.20
66119;DHT22;52912;48.564;9.302;2023-03-21T15:08:53;17.12;54.37
66119;DHT22;52912;48.564;9.302;2023-03-21T15:11:28;17.11;55.54
66119;DHT22;52912;48.564;9.302;2023-03-21T15:13:54;17.01;54.27
66119;DHT22;52912;48.564;9.302;2023-03-21T15:16:20;17.13;54.19
66119;DHT22;52912;48.564;9.302;2023-03-21T15:18:46;17.31;55.50
66119;DHT22;52912;48.564;9.302;2023-03-21T15:21:14;17.30;53.72
66119;DHT22;52912;48.564;9.302;2023-03-21T15:23:41;17.30;53.76
66119;DHT22;52912;48.564;9.302;2023-03-21T15:26:12;17.36;54.32
66119;DHT22;52912;48.564;9.302;2023-03-21T15:28:40;17.41;53.03
66119;DHT22;52912;48.564;9.302;2023-03-21T15:31:14;17.34;52.70
66119;DHT22;52912;48.564;9.302;2023-03-21T15:33:40;17.41;52.41
66119;DHT22;52912;48.564;9.302;2023-03-21T15:36:08;17.41;52.55
66119;DHT22;52912;48.564;9.302;2023-03-21T15:38:36;17.33;51.84
66119;DHT22;52912;48.564;9.302;2023-03-21T15:41:12;17.39;51.40
66119;DHT22;52912;48.564;9.302;2023-03-21T15:43:39;17.33;52.32
66119;DHT22;52912;48.564;9.302;2023-03-21T15:46:12;17.20;53.20
66119;DHT22;52912;48.564;9.302;2023-03-21T15:48:38;17.22;53.14
66119;DHT22;52912;48.564;9.302;2023-03-21T15:51:05;17.15;51.74